sensor_id;sensor_type;location;lat;lon;timestamp;P1;durP1;ratioP1;P2;durP2;ratioP2
31537;SDS011;18147;51.952;6.146;2023-09-19T00:02:17;14.43;;;3.60;;
31537;SDS011;18147;51.952;6.146;2023-09-19T00:04:43;14.38;;;3.67;;
31537;SDS011;18147;51.952;6.146;2023-09-19T00:07:09;20.23;;;4.28;;
31537;SDS011;18147;51.952;6.146;2023-09-19T00:09:34;28.40;;;4.82;;
31537;SDS011;18147;51.952;6.146;2023-09-19T00:12:07;14.90;;;4.72;;
31537;SDS011;18147;51.952;6.146;2023-09-19T00:14:34;19.45;;;4.03;;
31537;SDS011;18147;51.952;6.146;2023-09-19T00:17:04;23.20;;;5.10;;
31537;SDS011;18147;51.952;6.146;2023-09-19T00:19:34;18.30;;;4.95;;
31537;SDS011;18147;51.952;6.146;2023-09-19T00:22:01;26.95;;;4.75;;
31537;SDS011;18147;51.952;6.146;2023-09-19T00:24:26;18.70;;;4.88;;
31537;SDS011;18147;51.952;6.146;2023-09-19T00:26:53;19.90;;;4.97;;
31537;SDS011;18147;51.952;6.146;2023-09-19T00:29:21;25.75;;;5.72;;
31537;SDS011;18147;51.952;6.146;2023-09-19T00:31:49;24.70;;;4.65;;
31537;SDS011;18147;51.952;6.146;2023-09-19T00:34:15;20.38;;;4.50;;
31537;SDS011;18147;51.952;6.146;2023-09-19T00:36:41;19.13;;;4.43;;
31537;SDS011;18147;51.952;6.146;2023-09-19T00:39:08;16.33;;;4.47;;
31537;SDS011;18147;51.952;6.146;2023-09-19T00:41:37;20.13;;;5.07;;
31537;SDS011;18147;51.952;6.146;2023-09-19T00:44:03;21.25;;;5.70;;
31537;SDS011;18147;51.952;6.146;2023-09-19T00:46:30;14.35;;;4.18;;
31537;SDS011;18147;51.952;6.146;2023-09-19T00:48:57;25.42;;;5.25;;
31537;SDS011;18147;51.952;6.146;2023-09-19T00:51:24;12.43;;;3.60;;
31537;SDS011;18147;51.952;6.146;2023-09-19T00:53:52;15.82;;;4.30;;
31537;SDS011;18147;51.952;6.146;2023-09-19T00:56:19;16.33;;;4.78;;
31537;SDS011;18147;51.952;6.146;2023-09-19T00:58:46;13.55;;;3.97;;
31537;SDS011;18147;51.952;6.146;2023-09-19T01:01:13;18.45;;;4.75;;
31537;SDS011;18147;51.952;6.146;2023-09-19T01:03:43;16.42;;;4.13;;
31537;SDS011;18147;51.952;6.146;2023-09-19T01:06:11;14.20;;;4.30;;
31537;SDS011;18147;51.952;6.146;2023-09-19T01:08:38;14.00;;;5.32;;
31537;SDS011;18147;51.952;6.146;2023-09-19T01:14:38;17.52;;;4.90;;
31537;SDS011;18147;51.952;6.146;2023-09-19T01:17:00;11.25;;;4.53;;
31537;SDS011;18147;51.952;6.146;2023-09-19T01:19:54;18.52;;;5.05;;
31537;SDS011;18147;51.952;6.146;2023-09-19T01:25:36;19.08;;;5.15;;
31537;SDS011;18147;51.952;6.146;2023-09-19T01:31:02;22.17;;;5.15;;
31537;SDS011;18147;51.952;6.146;2023-09-19T01:33:52;21.10;;;5.45;;
31537;SDS011;18147;51.952;6.146;2023-09-19T01:36:33;21.23;;;5.70;;
31537;SDS011;18147;51.952;6.146;2023-09-19T01:39:06;22.75;;;4.90;;
31537;SDS011;18147;51.952;6.146;2023-09-19T01:41:45;22.48;;;5.22;;
31537;SDS011;18147;51.952;6.146;2023-09-19T01:47:17;21.33;;;4.85;;
31537;SDS011;18147;51.952;6.146;2023-09-19T01:49:55;19.52;;;4.63;;
31537;SDS011;18147;51.952;6.146;2023-09-19T01:52:42;23.33;;;5.78;;
31537;SDS011;18147;51.952;6.146;2023-09-19T01:55:13;20.77;;;4.57;;
31537;SDS011;18147;51.952;6.146;2023-09-19T02:00:15;25.15;;;4.28;;
31537;SDS011;18147;51.952;6.146;2023-09-19T02:02:45;22.17;;;5.38;;
31537;SDS011;18147;51.952;6.146;2023-09-19T02:05:13;24.23;;;5.45;;
31537;SDS011;18147;51.952;6.146;2023-09-19T02:07:39;23.08;;;4.97;;
31537;SDS011;18147;51.952;6.146;2023-09-19T02:10:07;19.83;;;4.70;;
31537;SDS011;18147;51.952;6.146;2023-09-19T02:12:35;26.05;;;4.43;;
31537;SDS011;18147;51.952;6.146;2023-09-19T02:15:02;21.73;;;5.30;;
31537;SDS011;18147;51.952;6.146;2023-09-19T02:17:28;16.40;;;4.03;;
31537;SDS011;18147;51.952;6.146;2023-09-19T02:19:58;22.83;;;4.70;;
31537;SDS011;18147;51.952;6.146;2023-09-19T02:22:25;24.65;;;5.07;;
31537;SDS011;18147;51.952;6.146;2023-09-19T02:24:52;18.98;;;4.15;;
31537;SDS011;18147;51.952;6.146;2023-09-19T02:27:19;19.27;;;4.63;;
31537;SDS011;18147;51.952;6.146;2023-09-19T02:29:44;13.38;;;3.85;;
31537;SDS011;18147;51.952;6.146;2023-09-19T02:32:10;14.98;;;4.05;;
31537;SDS011;18147;51.952;6.146;2023-09-19T02:34:36;19.65;;;4.60;;
31537;SDS011;18147;51.952;6.146;2023-09-19T02:37:07;20.20;;;4.40;;
31537;SDS011;18147;51.952;6.146;2023-09-19T02:39:38;31.48;;;4.43;;
31537;SDS011;18147;51.952;6.146;2023-09-19T02:42:05;16.20;;;4.13;;
31537;SDS011;18147;51.952;6.146;2023-09-19T02:44:30;22.13;;;4.75;;
31537;SDS011;18147;51.952;6.146;2023-09-19T02:46:56;21.10;;;5.45;;
31537;SDS011;18147;51.952;6.146;2023-09-19T02:49:22;17.35;;;3.72;;
31537;SDS011;18147;51.952;6.146;2023-09-19T02:51:48;23.98;;;4.65;;
31537;SDS011;18147;51.952;6.146;2023-09-19T02:54:16;15.15;;;4.20;;
31537;SDS011;18147;51.952;6.146;2023-09-19T02:56:42;18.92;;;3.97;;
31537;SDS011;18147;51.952;6.146;2023-09-19T02:59:08;24.20;;;4.35;;
31537;SDS011;18147;51.952;6.146;2023-09-19T03:01:36;23.27;;;4.82;;
31537;SDS011;18147;51.952;6.146;2023-09-19T03:04:05;17.20;;;4.43;;
31537;SDS011;18147;51.952;6.146;2023-09-19T03:06:34;27.25;;;4.72;;
31537;SDS011;18147;51.952;6.146;2023-09-19T03:09:00;16.08;;;3.58;;
31537;SDS011;18147;51.952;6.146;2023-09-19T03:11:26;17.58;;;4.18;;
31537;SDS011;18147;51.952;6.146;2023-09-19T03:13:55;21.58;;;3.92;;
31537;SDS011;18147;51.952;6.146;2023-09-19T03:16:22;23.08;;;4.63;;
31537;SDS011;18147;51.952;6.146;2023-09-19T03:18:50;15.98;;;4.18;;
31537;SDS011;18147;51.952;6.146;2023-09-19T03:21:16;21.25;;;4.15;;
31537;SDS011;18147;51.952;6.146;2023-09-19T03:23:45;18.30;;;3.97;;
31537;SDS011;18147;51.952;6.146;2023-09-19T03:26:11;26.02;;;4.30;;
31537;SDS011;18147;51.952;6.146;2023-09-19T03:28:38;23.42;;;5.03;;
31537;SDS011;18147;51.952;6.146;2023-09-19T03:31:05;22.95;;;5.28;;
31537;SDS011;18147;51.952;6.146;2023-09-19T03:33:33;19.58;;;4.25;;
31537;SDS011;18147;51.952;6.146;2023-09-19T03:36:00;16.98;;;4.10;;
31537;SDS011;18147;51.952;6.146;2023-09-19T03:38:31;23.45;;;4.70;;
31537;SDS011;18147;51.952;6.146;2023-09-19T03:40:58;18.92;;;3.88;;
31537;SDS011;18147;51.952;6.146;2023-09-19T03:43:24;18.70;;;4.30;;
31537;SDS011;18147;51.952;6.146;2023-09-19T03:45:53;20.15;;;4.55;;
31537;SDS011;18147;51.952;6.146;2023-09-19T03:48:21;29.13;;;4.60;;
31537;SDS011;18147;51.952;6.146;2023-09-19T03:50:49;26.40;;;4.65;;
31537;SDS011;18147;51.952;6.146;2023-09-19T03:53:16;21.48;;;4.53;;
31537;SDS011;18147;51.952;6.146;2023-09-19T03:55:41;19.10;;;3.80;;
31537;SDS011;18147;51.952;6.146;2023-09-19T03:58:10;19.45;;;4.47;;
31537;SDS011;18147;51.952;6.146;2023-09-19T04:00:37;20.13;;;5.22;;
31537;SDS011;18147;51.952;6.146;2023-09-19T04:03:03;21.73;;;4.47;;
31537;SDS011;18147;51.952;6.146;2023-09-19T04:05:32;19.63;;;5.00;;
31537;SDS011;18147;51.952;6.146;2023-09-19T04:07:59;21.35;;;4.53;;
31537;SDS011;18147;51.952;6.146;2023-09-19T04:10:28;16.98;;;3.97;;
31537;SDS011;18147;51.952;6.146;2023-09-19T04:12:54;19.27;;;4.43;;
31537;SDS011;18147;51.952;6.146;2023-09-19T04:15:22;14.23;;;3.95;;
31537;SDS011;18147;51.952;6.146;2023-09-19T04:17:50;14.70;;;4.55;;
31537;SDS011;18147;51.952;6.146;2023-09-19T04:20:19;19.95;;;4.75;;
31537;SDS011;18147;51.952;6.146;2023-09-19T04:22:45;16.40;;;3.72;;
31537;SDS011;18147;51.952;6.146;2023-09-19T04:25:12;16.08;;;4.22;;
31537;SDS011;18147;51.952;6.146;2023-09-19T04:27:39;19.73;;;4.38;;
31537;SDS011;18147;51.952;6.146;2023-09-19T04:30:07;22.25;;;3.80;;
31537;SDS011;18147;51.952;6.146;2023-09-19T04:32:40;19.08;;;4.28;;
31537;SDS011;18147;51.952;6.146;2023-09-19T04:35:06;14.35;;;3.63;;
31537;SDS011;18147;51.952;6.146;2023-09-19T04:37:35;15.38;;;4.25;;
31537;SDS011;18147;51.952;6.146;2023-09-19T04:40:08;18.90;;;4.05;;
31537;SDS011;18147;51.952;6.146;2023-09-19T04:42:40;20.20;;;4.07;;
31537;SDS011;18147;51.952;6.146;2023-09-19T04:45:10;24.15;;;4.38;;
31537;SDS011;18147;51.952;6.146;2023-09-19T04:47:36;21.85;;;4.53;;
31537;SDS011;18147;51.952;6.146;2023-09-19T04:50:05;23.75;;;4.20;;
31537;SDS011;18147;51.952;6.146;2023-09-19T04:52:32;20.52;;;5.15;;
31537;SDS011;18147;51.952;6.146;2023-09-19T04:54:58;18.20;;;4.30;;
31537;SDS011;18147;51.952;6.146;2023-09-19T04:57:24;19.77;;;3.55;;
31537;SDS011;18147;51.952;6.146;2023-09-19T04:59:52;19.10;;;4.00;;
31537;SDS011;18147;51.952;6.146;2023-09-19T05:02:19;26.02;;;4.90;;
31537;SDS011;18147;51.952;6.146;2023-09-19T05:04:44;18.35;;;4.00;;
31537;SDS011;18147;51.952;6.146;2023-09-19T05:07:10;20.42;;;3.58;;
31537;SDS011;18147;51.952;6.146;2023-09-19T05:09:39;17.30;;;3.78;;
31537;SDS011;18147;51.952;6.146;2023-09-19T05:12:07;27.13;;;4.75;;
31537;SDS011;18147;51.952;6.146;2023-09-19T05:14:38;14.85;;;3.55;;
31537;SDS011;18147;51.952;6.146;2023-09-19T05:17:05;16.50;;;3.38;;
31537;SDS011;18147;51.952;6.146;2023-09-19T05:19:31;13.60;;;4.25;;
31537;SDS011;18147;51.952;6.146;2023-09-19T05:21:56;17.67;;;4.32;;
31537;SDS011;18147;51.952;6.146;2023-09-19T05:24:22;12.70;;;3.58;;
31537;SDS011;18147;51.952;6.146;2023-09-19T05:26:48;13.50;;;4.15;;
31537;SDS011;18147;51.952;6.146;2023-09-19T05:29:17;15.52;;;4.05;;
31537;SDS011;18147;51.952;6.146;2023-09-19T05:31:42;12.95;;;3.80;;
31537;SDS011;18147;51.952;6.146;2023-09-19T05:34:08;20.55;;;4.55;;
31537;SDS011;18147;51.952;6.146;2023-09-19T05:36:35;16.13;;;4.28;;
31537;SDS011;18147;51.952;6.146;2023-09-19T05:39:00;15.57;;;3.97;;
31537;SDS011;18147;51.952;6.146;2023-09-19T05:41:26;15.50;;;3.70;;
31537;SDS011;18147;51.952;6.146;2023-09-19T05:43:52;17.38;;;4.03;;
31537;SDS011;18147;51.952;6.146;2023-09-19T05:46:18;19.60;;;4.47;;
31537;SDS011;18147;51.952;6.146;2023-09-19T05:48:44;17.35;;;5.03;;
31537;SDS011;18147;51.952;6.146;2023-09-19T05:51:09;24.23;;;5.07;;
31537;SDS011;18147;51.952;6.146;2023-09-19T05:53:35;20.77;;;3.88;;
31537;SDS011;18147;51.952;6.146;2023-09-19T05:56:01;20.85;;;5.22;;
31537;SDS011;18147;51.952;6.146;2023-09-19T05:58:27;14.75;;;4.13;;
31537;SDS011;18147;51.952;6.146;2023-09-19T06:00:53;14.48;;;3.45;;
31537;SDS011;18147;51.952;6.146;2023-09-19T06:03:18;19.55;;;3.63;;
31537;SDS011;18147;51.952;6.146;2023-09-19T06:05:45;17.63;;;3.95;;
31537;SDS011;18147;51.952;6.146;2023-09-19T06:08:14;20.80;;;4.43;;
31537;SDS011;18147;51.952;6.146;2023-09-19T06:10:40;25.88;;;4.60;;
31537;SDS011;18147;51.952;6.146;2023-09-19T06:13:09;19.63;;;4.35;;
31537;SDS011;18147;51.952;6.146;2023-09-19T06:15:35;16.40;;;3.33;;
31537;SDS011;18147;51.952;6.146;2023-09-19T06:18:10;22.10;;;4.35;;
31537;SDS011;18147;51.952;6.146;2023-09-19T06:20:43;18.02;;;3.95;;
31537;SDS011;18147;51.952;6.146;2023-09-19T06:23:09;15.07;;;3.88;;
31537;SDS011;18147;51.952;6.146;2023-09-19T06:25:35;23.10;;;4.43;;
31537;SDS011;18147;51.952;6.146;2023-09-19T06:28:01;28.25;;;5.57;;
31537;SDS011;18147;51.952;6.146;2023-09-19T06:30:30;18.45;;;4.20;;
31537;SDS011;18147;51.952;6.146;2023-09-19T06:32:58;16.45;;;4.45;;
31537;SDS011;18147;51.952;6.146;2023-09-19T06:35:24;23.05;;;5.00;;
31537;SDS011;18147;51.952;6.146;2023-09-19T06:37:51;18.48;;;4.13;;
31537;SDS011;18147;51.952;6.146;2023-09-19T06:40:17;16.85;;;4.10;;
31537;SDS011;18147;51.952;6.146;2023-09-19T06:42:45;20.05;;;4.18;;
31537;SDS011;18147;51.952;6.146;2023-09-19T06:45:21;21.15;;;4.32;;
31537;SDS011;18147;51.952;6.146;2023-09-19T06:47:48;23.13;;;4.75;;
31537;SDS011;18147;51.952;6.146;2023-09-19T06:50:19;17.52;;;4.13;;
31537;SDS011;18147;51.952;6.146;2023-09-19T06:52:47;19.13;;;4.97;;
31537;SDS011;18147;51.952;6.146;2023-09-19T06:55:15;19.15;;;4.88;;
31537;SDS011;18147;51.952;6.146;2023-09-19T06:57:42;23.02;;;4.60;;
31537;SDS011;18147;51.952;6.146;2023-09-19T07:00:11;16.08;;;4.45;;
31537;SDS011;18147;51.952;6.146;2023-09-19T07:03:02;18.38;;;4.82;;
31537;SDS011;18147;51.952;6.146;2023-09-19T07:05:31;25.80;;;5.53;;
31537;SDS011;18147;51.952;6.146;2023-09-19T07:07:58;18.08;;;4.40;;
31537;SDS011;18147;51.952;6.146;2023-09-19T07:10:29;14.00;;;3.97;;
31537;SDS011;18147;51.952;6.146;2023-09-19T07:12:59;15.65;;;4.13;;
31537;SDS011;18147;51.952;6.146;2023-09-19T07:15:35;18.98;;;4.35;;
31537;SDS011;18147;51.952;6.146;2023-09-19T07:18:05;23.10;;;4.97;;
31537;SDS011;18147;51.952;6.146;2023-09-19T07:20:36;20.70;;;4.70;;
31537;SDS011;18147;51.952;6.146;2023-09-19T07:23:05;18.98;;;4.80;;
31537;SDS011;18147;51.952;6.146;2023-09-19T07:25:31;21.65;;;4.43;;
31537;SDS011;18147;51.952;6.146;2023-09-19T07:27:57;20.98;;;4.75;;
31537;SDS011;18147;51.952;6.146;2023-09-19T07:30:26;20.05;;;4.95;;
31537;SDS011;18147;51.952;6.146;2023-09-19T07:32:52;22.25;;;3.63;;
31537;SDS011;18147;51.952;6.146;2023-09-19T07:35:18;15.60;;;4.55;;
31537;SDS011;18147;51.952;6.146;2023-09-19T07:37:45;16.30;;;4.60;;
31537;SDS011;18147;51.952;6.146;2023-09-19T07:40:15;15.40;;;3.80;;
31537;SDS011;18147;51.952;6.146;2023-09-19T07:42:41;16.38;;;4.55;;
31537;SDS011;18147;51.952;6.146;2023-09-19T07:45:09;21.20;;;4.55;;
31537;SDS011;18147;51.952;6.146;2023-09-19T07:47:45;13.85;;;3.70;;
31537;SDS011;18147;51.952;6.146;2023-09-19T07:50:18;23.13;;;4.30;;
31537;SDS011;18147;51.952;6.146;2023-09-19T07:52:45;15.05;;;3.67;;
31537;SDS011;18147;51.952;6.146;2023-09-19T07:55:18;16.13;;;4.78;;
31537;SDS011;18147;51.952;6.146;2023-09-19T07:57:48;21.77;;;4.40;;
31537;SDS011;18147;51.952;6.146;2023-09-19T08:00:17;13.93;;;4.18;;
31537;SDS011;18147;51.952;6.146;2023-09-19T08:02:43;20.38;;;4.57;;
31537;SDS011;18147;51.952;6.146;2023-09-19T08:05:11;23.83;;;5.18;;
31537;SDS011;18147;51.952;6.146;2023-09-19T08:07:41;21.55;;;4.22;;
31537;SDS011;18147;51.952;6.146;2023-09-19T08:10:09;19.30;;;4.13;;
31537;SDS011;18147;51.952;6.146;2023-09-19T08:12:44;22.23;;;4.75;;
31537;SDS011;18147;51.952;6.146;2023-09-19T08:15:15;16.02;;;4.18;;
31537;SDS011;18147;51.952;6.146;2023-09-19T08:17:41;18.13;;;4.53;;
31537;SDS011;18147;51.952;6.146;2023-09-19T08:20:08;17.75;;;4.25;;
31537;SDS011;18147;51.952;6.146;2023-09-19T08:22:51;22.92;;;4.72;;
31537;SDS011;18147;51.952;6.146;2023-09-19T08:25:19;22.60;;;5.22;;
31537;SDS011;18147;51.952;6.146;2023-09-19T08:27:51;18.48;;;4.55;;
31537;SDS011;18147;51.952;6.146;2023-09-19T08:30:18;19.00;;;4.90;;
31537;SDS011;18147;51.952;6.146;2023-09-19T08:33:01;18.65;;;4.88;;
31537;SDS011;18147;51.952;6.146;2023-09-19T08:35:29;19.88;;;4.30;;
31537;SDS011;18147;51.952;6.146;2023-09-19T08:37:58;10.95;;;3.85;;
31537;SDS011;18147;51.952;6.146;2023-09-19T08:40:32;18.95;;;3.92;;
31537;SDS011;18147;51.952;6.146;2023-09-19T08:43:02;17.83;;;4.43;;
31537;SDS011;18147;51.952;6.146;2023-09-19T08:45:28;21.95;;;5.43;;
31537;SDS011;18147;51.952;6.146;2023-09-19T08:53:27;19.27;;;5.40;;
31537;SDS011;18147;51.952;6.146;2023-09-19T08:55:57;24.30;;;5.80;;
31537;SDS011;18147;51.952;6.146;2023-09-19T08:58:27;24.55;;;4.75;;
31537;SDS011;18147;51.952;6.146;2023-09-19T09:00:58;18.45;;;4.70;;
31537;SDS011;18147;51.952;6.146;2023-09-19T09:03:26;15.35;;;4.25;;
31537;SDS011;18147;51.952;6.146;2023-09-19T09:05:58;22.20;;;5.32;;
31537;SDS011;18147;51.952;6.146;2023-09-19T09:08:24;19.77;;;5.32;;
31537;SDS011;18147;51.952;6.146;2023-09-19T09:10:51;25.10;;;5.07;;
31537;SDS011;18147;51.952;6.146;2023-09-19T09:13:17;17.65;;;4.95;;
31537;SDS011;18147;51.952;6.146;2023-09-19T09:15:43;21.58;;;4.60;;
31537;SDS011;18147;51.952;6.146;2023-09-19T09:18:13;15.98;;;3.95;;
31537;SDS011;18147;51.952;6.146;2023-09-19T09:20:40;15.98;;;4.32;;
31537;SDS011;18147;51.952;6.146;2023-09-19T09:23:06;23.13;;;5.05;;
31537;SDS011;18147;51.952;6.146;2023-09-19T09:25:51;17.10;;;4.65;;
31537;SDS011;18147;51.952;6.146;2023-09-19T09:28:28;14.65;;;4.55;;
31537;SDS011;18147;51.952;6.146;2023-09-19T09:30:59;15.35;;;4.32;;
31537;SDS011;18147;51.952;6.146;2023-09-19T09:33:33;18.38;;;4.75;;
31537;SDS011;18147;51.952;6.146;2023-09-19T09:36:00;18.48;;;4.78;;
31537;SDS011;18147;51.952;6.146;2023-09-19T09:38:46;15.38;;;3.75;;
31537;SDS011;18147;51.952;6.146;2023-09-19T09:41:16;19.73;;;3.80;;
31537;SDS011;18147;51.952;6.146;2023-09-19T09:43:52;20.27;;;4.50;;
31537;SDS011;18147;51.952;6.146;2023-09-19T09:46:19;15.27;;;4.88;;
31537;SDS011;18147;51.952;6.146;2023-09-19T09:48:59;14.80;;;3.95;;
31537;SDS011;18147;51.952;6.146;2023-09-19T09:51:49;25.13;;;4.35;;
31537;SDS011;18147;51.952;6.146;2023-09-19T09:54:25;16.60;;;4.40;;
31537;SDS011;18147;51.952;6.146;2023-09-19T09:57:06;14.20;;;3.47;;
31537;SDS011;18147;51.952;6.146;2023-09-19T10:02:17;19.02;;;4.13;;
31537;SDS011;18147;51.952;6.146;2023-09-19T10:04:53;16.02;;;3.90;;
31537;SDS011;18147;51.952;6.146;2023-09-19T10:07:40;19.92;;;4.45;;
31537;SDS011;18147;51.952;6.146;2023-09-19T10:10:08;18.00;;;3.40;;
31537;SDS011;18147;51.952;6.146;2023-09-19T10:12:49;23.40;;;5.70;;
31537;SDS011;18147;51.952;6.146;2023-09-19T10:15:22;15.95;;;4.07;;
31537;SDS011;18147;51.952;6.146;2023-09-19T10:17:49;18.40;;;4.13;;
31537;SDS011;18147;51.952;6.146;2023-09-19T10:20:19;18.13;;;4.90;;
31537;SDS011;18147;51.952;6.146;2023-09-19T10:23:10;15.15;;;3.70;;
31537;SDS011;18147;51.952;6.146;2023-09-19T10:25:47;15.80;;;4.38;;
31537;SDS011;18147;51.952;6.146;2023-09-19T10:28:15;13.43;;;3.78;;
31537;SDS011;18147;51.952;6.146;2023-09-19T10:30:47;24.30;;;4.35;;
31537;SDS011;18147;51.952;6.146;2023-09-19T10:33:19;15.32;;;4.38;;
31537;SDS011;18147;51.952;6.146;2023-09-19T10:35:47;19.38;;;3.85;;
31537;SDS011;18147;51.952;6.146;2023-09-19T10:38:17;16.27;;;4.20;;
31537;SDS011;18147;51.952;6.146;2023-09-19T10:40:48;19.25;;;4.60;;
31537;SDS011;18147;51.952;6.146;2023-09-19T10:43:17;17.65;;;3.95;;
31537;SDS011;18147;51.952;6.146;2023-09-19T10:45:43;21.13;;;4.00;;
31537;SDS011;18147;51.952;6.146;2023-09-19T10:48:10;19.35;;;4.68;;
31537;SDS011;18147;51.952;6.146;2023-09-19T10:50:48;19.80;;;4.78;;
31537;SDS011;18147;51.952;6.146;2023-09-19T10:53:20;14.02;;;4.68;;
31537;SDS011;18147;51.952;6.146;2023-09-19T10:55:55;14.02;;;3.35;;
31537;SDS011;18147;51.952;6.146;2023-09-19T10:58:28;14.65;;;3.95;;
31537;SDS011;18147;51.952;6.146;2023-09-19T11:01:01;15.57;;;3.22;;
31537;SDS011;18147;51.952;6.146;2023-09-19T11:03:35;16.38;;;4.28;;
31537;SDS011;18147;51.952;6.146;2023-09-19T11:06:05;15.32;;;3.90;;
31537;SDS011;18147;51.952;6.146;2023-09-19T11:08:55;11.32;;;3.70;;
31537;SDS011;18147;51.952;6.146;2023-09-19T11:14:13;14.67;;;3.10;;
31537;SDS011;18147;51.952;6.146;2023-09-19T11:30:43;12.60;;;3.58;;
31537;SDS011;18147;51.952;6.146;2023-09-19T11:33:15;12.25;;;3.28;;
31537;SDS011;18147;51.952;6.146;2023-09-19T11:36:16;10.35;;;2.42;;
31537;SDS011;18147;51.952;6.146;2023-09-19T11:47:26;15.40;;;2.95;;
31537;SDS011;18147;51.952;6.146;2023-09-19T11:49:28;11.23;;;2.90;;
31537;SDS011;18147;51.952;6.146;2023-09-19T11:51:59;10.73;;;2.85;;
31537;SDS011;18147;51.952;6.146;2023-09-19T11:54:26;15.27;;;3.22;;
31537;SDS011;18147;51.952;6.146;2023-09-19T11:56:59;16.55;;;3.17;;
31537;SDS011;18147;51.952;6.146;2023-09-19T11:59:29;11.85;;;3.40;;
31537;SDS011;18147;51.952;6.146;2023-09-19T12:02:38;9.95;;;3.13;;
31537;SDS011;18147;51.952;6.146;2023-09-19T12:05:00;10.60;;;2.85;;
31537;SDS011;18147;51.952;6.146;2023-09-19T12:07:28;8.98;;;2.33;;
31537;SDS011;18147;51.952;6.146;2023-09-19T12:10:02;17.02;;;3.15;;
31537;SDS011;18147;51.952;6.146;2023-09-19T12:12:29;13.40;;;2.92;;
31537;SDS011;18147;51.952;6.146;2023-09-19T12:14:57;10.52;;;3.17;;
31537;SDS011;18147;51.952;6.146;2023-09-19T12:17:23;11.50;;;3.00;;
31537;SDS011;18147;51.952;6.146;2023-09-19T12:20:09;8.90;;;2.53;;
31537;SDS011;18147;51.952;6.146;2023-09-19T12:22:40;11.77;;;2.83;;
31537;SDS011;18147;51.952;6.146;2023-09-19T12:25:12;15.63;;;3.45;;
31537;SDS011;18147;51.952;6.146;2023-09-19T12:27:45;11.07;;;2.75;;
31537;SDS011;18147;51.952;6.146;2023-09-19T12:32:43;10.00;;;2.75;;
31537;SDS011;18147;51.952;6.146;2023-09-19T12:35:10;8.70;;;2.63;;
31537;SDS011;18147;51.952;6.146;2023-09-19T12:37:53;9.70;;;2.40;;
31537;SDS011;18147;51.952;6.146;2023-09-19T12:40:22;13.48;;;3.05;;
31537;SDS011;18147;51.952;6.146;2023-09-19T12:42:52;9.10;;;2.63;;
31537;SDS011;18147;51.952;6.146;2023-09-19T12:45:23;12.02;;;2.78;;
31537;SDS011;18147;51.952;6.146;2023-09-19T12:53:41;10.13;;;2.22;;
31537;SDS011;18147;51.952;6.146;2023-09-19T12:56:15;10.75;;;2.45;;
31537;SDS011;18147;51.952;6.146;2023-09-19T12:58:52;8.15;;;1.95;;
31537;SDS011;18147;51.952;6.146;2023-09-19T13:01:19;8.90;;;2.35;;
31537;SDS011;18147;51.952;6.146;2023-09-19T13:04:19;9.52;;;2.28;;
31537;SDS011;18147;51.952;6.146;2023-09-19T13:07:01;10.02;;;2.10;;
31537;SDS011;18147;51.952;6.146;2023-09-19T13:09:27;15.20;;;2.45;;
31537;SDS011;18147;51.952;6.146;2023-09-19T13:12:05;7.88;;;2.33;;
31537;SDS011;18147;51.952;6.146;2023-09-19T13:15:11;8.75;;;2.00;;
31537;SDS011;18147;51.952;6.146;2023-09-19T13:17:45;12.18;;;2.85;;
31537;SDS011;18147;51.952;6.146;2023-09-19T13:20:23;6.28;;;2.30;;
31537;SDS011;18147;51.952;6.146;2023-09-19T13:22:53;8.02;;;2.13;;
31537;SDS011;18147;51.952;6.146;2023-09-19T13:25:23;8.68;;;2.20;;
31537;SDS011;18147;51.952;6.146;2023-09-19T13:27:52;8.15;;;1.90;;
31537;SDS011;18147;51.952;6.146;2023-09-19T13:30:23;8.48;;;2.10;;
31537;SDS011;18147;51.952;6.146;2023-09-19T13:32:52;7.15;;;2.10;;
31537;SDS011;18147;51.952;6.146;2023-09-19T13:35:35;10.38;;;2.35;;
31537;SDS011;18147;51.952;6.146;2023-09-19T13:38:05;6.68;;;1.70;;
31537;SDS011;18147;51.952;6.146;2023-09-19T13:40:34;5.15;;;2.40;;
31537;SDS011;18147;51.952;6.146;2023-09-19T13:43:01;9.45;;;2.08;;
31537;SDS011;18147;51.952;6.146;2023-09-19T13:45:27;5.93;;;1.70;;
31537;SDS011;18147;51.952;6.146;2023-09-19T13:47:58;9.38;;;2.40;;
31537;SDS011;18147;51.952;6.146;2023-09-19T13:50:24;15.60;;;1.98;;
31537;SDS011;18147;51.952;6.146;2023-09-19T13:53:10;7.95;;;1.60;;
31537;SDS011;18147;51.952;6.146;2023-09-19T13:55:37;7.78;;;1.95;;
31537;SDS011;18147;51.952;6.146;2023-09-19T13:58:03;7.57;;;2.10;;
31537;SDS011;18147;51.952;6.146;2023-09-19T14:00:31;10.95;;;2.00;;
31537;SDS011;18147;51.952;6.146;2023-09-19T14:03:02;6.28;;;1.85;;
31537;SDS011;18147;51.952;6.146;2023-09-19T14:05:32;8.65;;;2.15;;
31537;SDS011;18147;51.952;6.146;2023-09-19T14:07:58;6.82;;;1.95;;
31537;SDS011;18147;51.952;6.146;2023-09-19T14:10:24;5.90;;;2.03;;
31537;SDS011;18147;51.952;6.146;2023-09-19T14:12:53;4.97;;;1.55;;
31537;SDS011;18147;51.952;6.146;2023-09-19T14:15:19;7.65;;;1.50;;
31537;SDS011;18147;51.952;6.146;2023-09-19T14:17:45;5.05;;;1.90;;
31537;SDS011;18147;51.952;6.146;2023-09-19T14:20:11;5.45;;;1.85;;
31537;SDS011;18147;51.952;6.146;2023-09-19T14:22:40;5.20;;;1.73;;
31537;SDS011;18147;51.952;6.146;2023-09-19T14:25:06;10.48;;;2.20;;
31537;SDS011;18147;51.952;6.146;2023-09-19T14:27:35;12.18;;;2.22;;
31537;SDS011;18147;51.952;6.146;2023-09-19T14:30:01;9.35;;;1.95;;
31537;SDS011;18147;51.952;6.146;2023-09-19T14:32:27;8.35;;;1.40;;
31537;SDS011;18147;51.952;6.146;2023-09-19T14:34:52;7.43;;;2.13;;
31537;SDS011;18147;51.952;6.146;2023-09-19T14:37:18;5.85;;;1.63;;
31537;SDS011;18147;51.952;6.146;2023-09-19T14:39:46;9.48;;;1.90;;
31537;SDS011;18147;51.952;6.146;2023-09-19T14:42:11;10.15;;;1.73;;
31537;SDS011;18147;51.952;6.146;2023-09-19T14:44:39;8.45;;;1.70;;
31537;SDS011;18147;51.952;6.146;2023-09-19T14:47:05;11.43;;;1.85;;
31537;SDS011;18147;51.952;6.146;2023-09-19T14:49:35;13.52;;;2.05;;
31537;SDS011;18147;51.952;6.146;2023-09-19T14:52:03;7.57;;;1.77;;
31537;SDS011;18147;51.952;6.146;2023-09-19T14:54:32;4.03;;;1.92;;
31537;SDS011;18147;51.952;6.146;2023-09-19T14:56:59;3.72;;;1.55;;
31537;SDS011;18147;51.952;6.146;2023-09-19T14:59:34;6.18;;;1.83;;
31537;SDS011;18147;51.952;6.146;2023-09-19T15:02:06;7.28;;;2.17;;
31537;SDS011;18147;51.952;6.146;2023-09-19T15:04:33;7.78;;;1.70;;
31537;SDS011;18147;51.952;6.146;2023-09-19T15:06:59;5.53;;;1.70;;
31537;SDS011;18147;51.952;6.146;2023-09-19T15:09:25;8.63;;;2.20;;
31537;SDS011;18147;51.952;6.146;2023-09-19T15:11:55;6.43;;;1.52;;
31537;SDS011;18147;51.952;6.146;2023-09-19T15:14:22;9.02;;;2.00;;
31537;SDS011;18147;51.952;6.146;2023-09-19T15:16:50;6.18;;;2.92;;
31537;SDS011;18147;51.952;6.146;2023-09-19T15:19:16;4.60;;;1.67;;
31537;SDS011;18147;51.952;6.146;2023-09-19T15:21:43;8.50;;;1.83;;
31537;SDS011;18147;51.952;6.146;2023-09-19T15:24:09;6.40;;;2.08;;
31537;SDS011;18147;51.952;6.146;2023-09-19T15:26:35;7.15;;;2.03;;
31537;SDS011;18147;51.952;6.146;2023-09-19T15:29:10;6.43;;;1.50;;
31537;SDS011;18147;51.952;6.146;2023-09-19T15:31:36;12.05;;;2.22;;
31537;SDS011;18147;51.952;6.146;2023-09-19T15:34:05;7.15;;;1.88;;
31537;SDS011;18147;51.952;6.146;2023-09-19T15:36:33;4.53;;;1.90;;
31537;SDS011;18147;51.952;6.146;2023-09-19T15:39:03;7.88;;;2.17;;
31537;SDS011;18147;51.952;6.146;2023-09-19T15:44:01;3.70;;;1.70;;
31537;SDS011;18147;51.952;6.146;2023-09-19T15:46:29;5.53;;;1.85;;
31537;SDS011;18147;51.952;6.146;2023-09-19T15:48:56;4.63;;;1.80;;
31537;SDS011;18147;51.952;6.146;2023-09-19T15:51:22;14.77;;;2.13;;